Time;durP1;ratioP1;P1;durP2;ratioP2;P2;SDS_P1;SDS_P2;PMS_P1;PMS_P2;Temp;Humidity;BMP_temperature;BMP_pressure;BME280_temperature;BME280_humidity;BME280_pressure;Samples;Min_cycle;Max_cycle;Signal;HPM_P1;HPM_P2
2022/05/25 00:01:15;;;;;;;2.58;0.70;;;13.00;96.00;;;;;;4990250;28;20037;-77
2022/05/25 00:03:40;;;;;;;1.58;0.65;;;12.90;96.40;;;;;;4975391;28;20472;-76
2022/05/25 00:06:07;;;;;;;3.00;0.88;;;13.00;96.20;;;;;;4948930;28;20508;-77
2022/05/25 00:08:32;;;;;;;2.63;0.80;;;13.00;96.60;;;;;;4943113;28;20358;-77
2022/05/25 00:10:58;;;;;;;2.80;0.93;;;12.90;96.70;;;;;;4993852;28;20030;-77
2022/05/25 00:13:24;;;;;;;0.88;0.50;;;12.90;96.80;;;;;;4993534;28;20094;-77
2022/05/25 00:15:50;;;;;;;3.03;0.80;;;13.00;96.90;;;;;;4999748;28;20057;-77
2022/05/25 00:18:15;;;;;;;3.13;0.75;;;13.00;97.50;;;;;;4965090;28;20093;-77
2022/05/25 00:20:41;;;;;;;3.55;1.10;;;12.90;97.10;;;;;;4983434;28;20114;-77
2022/05/25 00:23:06;;;;;;;1.30;0.50;;;12.90;97.30;;;;;;4945695;28;20121;-77
2022/05/25 00:25:33;;;;;;;2.17;0.75;;;12.90;97.10;;;;;;4997311;28;20037;-77
2022/05/25 00:28:00;;;;;;;2.15;1.00;;;12.90;97.40;;;;;;4946215;28;20034;-77
2022/05/25 00:30:27;;;;;;;4.35;1.15;;;12.80;97.30;;;;;;4981514;28;20058;-77
2022/05/25 00:32:55;;;;;;;2.10;0.98;;;12.70;98.10;;;;;;4961582;28;20038;-76
2022/05/25 00:35:22;;;;;;;5.07;1.30;;;12.80;98.30;;;;;;4995324;28;20508;-76
2022/05/25 00:37:47;;;;;;;1.92;1.10;;;12.70;98.20;;;;;;4995913;28;20455;-77
2022/05/25 00:40:24;;;;;;;1.73;0.93;;;12.70;98.20;;;;;;4981231;28;20038;-77
2022/05/25 00:42:50;;;;;;;3.38;1.40;;;12.70;98.30;;;;;;4936962;28;20046;-76
2022/05/25 00:45:15;;;;;;;7.78;1.23;;;12.70;98.60;;;;;;4928586;28;20035;-77
2022/05/25 00:47:42;;;;;;;4.32;1.70;;;12.70;98.70;;;;;;4963366;28;20039;-76
2022/05/25 00:50:09;;;;;;;1.92;1.33;;;12.60;98.90;;;;;;4938396;28;20093;-77
2022/05/25 00:52:34;;;;;;;3.53;2.42;;;12.60;99.20;;;;;;4997239;28;20038;-77
2022/05/25 00:55:02;;;;;;;3.92;1.58;;;12.70;99.00;;;;;;4978819;28;20485;-76
2022/05/25 00:57:35;;;;;;;4.10;1.60;;;12.70;99.30;;;;;;4995030;28;20410;-77
2022/05/25 01:00:07;;;;;;;6.70;2.38;;;12.70;99.30;;;;;;4974720;28;20104;-77
2022/05/25 01:02:43;;;;;;;5.28;1.52;;;12.50;99.80;;;;;;4979239;28;20046;-77
2022/05/25 01:05:10;;;;;;;3.42;2.17;;;12.40;99.90;;;;;;4961577;28;20039;-76
2022/05/25 01:07:56;;;;;;;5.15;2.33;;;12.30;99.90;;;;;;4980532;28;20485;-76
2022/05/25 01:10:32;;;;;;;;;;;12.40;99.90;;;;;;4994739;28;20066;-76
2022/05/25 01:13:25;;;;;;;3.05;1.50;;;12.30;99.90;;;;;;4959487;28;19913;-77
2022/05/25 01:16:02;;;;;;;3.58;1.48;;;12.10;99.90;;;;;;4960422;28;20130;-77
2022/05/25 01:18:48;;;;;;;2.22;1.60;;;12.00;99.90;;;;;;4979196;28;20070;-77
2022/05/25 01:21:35;;;;;;;4.30;1.90;;;12.00;99.90;;;;;;4960797;28;20029;-76
2022/05/25 01:24:36;;;;;;;5.05;2.13;;;12.00;99.90;;;;;;4964180;28;20056;-77
2022/05/25 01:27:41;;;;;;;3.55;1.98;;;11.90;99.90;;;;;;4959242;28;20031;-77
2022/05/25 01:30:27;;;;;;;3.70;1.92;;;11.90;99.90;;;;;;4905205;29;20039;-77
2022/05/25 01:33:21;;;;;;;5.03;2.72;;;11.90;99.90;;;;;;4957654;28;20501;-77
2022/05/25 01:35:47;;;;;;;4.43;2.47;;;11.70;99.90;;;;;;4978665;28;20106;-76
2022/05/25 01:38:22;;;;;;;4.93;2.90;;;11.60;99.90;;;;;;4978660;28;20169;-77
2022/05/25 01:40:58;;;;;;;4.60;2.72;;;11.50;99.90;;;;;;4964799;28;20081;-76
2022/05/25 01:43:28;;;;;;;8.70;2.85;;;11.40;99.90;;;;;;4980848;28;20538;-76
2022/05/25 01:45:59;;;;;;;4.38;2.75;;;11.20;99.90;;;;;;4959291;28;20481;-77
2022/05/25 01:48:25;;;;;;;10.05;3.00;;;11.10;99.90;;;;;;4995645;28;20039;-76
2022/05/25 01:50:59;;;;;;;6.32;3.10;;;11.10;99.90;;;;;;4958707;28;20034;-76
2022/05/25 01:53:27;;;;;;;4.43;2.50;;;11.20;99.90;;;;;;4978508;28;20034;-76
2022/05/25 01:55:56;;;;;;;4.38;2.75;;;11.00;99.90;;;;;;4980976;28;20054;-77
2022/05/25 01:58:21;;;;;;;7.90;3.08;;;11.00;99.90;;;;;;4944692;28;20030;-77
2022/05/25 02:00:50;;;;;;;6.57;3.00;;;10.80;99.90;;;;;;4996425;28;20026;-77
2022/05/25 02:06:05;;;;;;;4.88;3.17;;;10.50;99.90;;;;;;4992917;28;20538;-76
2022/05/25 02:08:41;;;;;;;4.72;2.40;;;10.40;99.90;;;;;;4977295;28;20038;-76
2022/05/25 02:11:29;;;;;;;4.85;2.60;;;10.60;99.90;;;;;;4958774;28;20034;-76
2022/05/25 02:14:15;;;;;;;3.65;2.55;;;10.70;99.90;;;;;;4976894;28;20035;-76
2022/05/25 02:16:44;;;;;;;4.40;2.75;;;10.60;99.90;;;;;;4992236;28;20035;-77
2022/05/25 02:19:13;;;;;;;5.22;2.80;;;10.40;99.90;;;;;;4959218;28;20552;-76
2022/05/25 02:21:43;;;;;;;6.78;2.80;;;10.40;99.90;;;;;;4975959;28;20023;-76
2022/05/25 02:24:25;;;;;;;2.42;1.73;;;10.30;99.90;;;;;;4946752;28;20027;-76
2022/05/25 02:26:53;;;;;;;7.95;3.10;;;10.40;99.90;;;;;;4943568;28;20046;-78
2022/05/25 02:29:38;;;;;;;6.47;3.72;;;10.60;99.90;;;;;;4989963;28;21075;-77
2022/05/25 02:32:28;;;;;;;4.03;2.88;;;10.40;99.90;;;;;;4973421;28;20041;-77
2022/05/25 02:34:57;;;;;;;3.42;2.40;;;10.50;99.90;;;;;;4992369;28;20034;-77
2022/05/25 02:37:23;;;;;;;7.15;3.50;;;10.80;99.90;;;;;;4979138;28;20035;-78
2022/05/25 02:39:53;;;;;;;7.15;2.25;;;10.70;99.90;;;;;;4991270;28;20042;-77
2022/05/25 02:42:19;;;;;;;3.38;2.20;;;10.60;99.90;;;;;;4982472;28;20309;-78
2022/05/25 02:44:44;;;;;;;2.38;1.80;;;10.80;99.90;;;;;;4941905;28;20485;-78
2022/05/25 02:47:10;;;;;;;2.85;1.65;;;10.90;99.90;;;;;;4958995;28;20370;-77
2022/05/25 02:49:36;;;;;;;3.35;1.52;;;11.00;99.90;;;;;;4995261;28;20042;-77
2022/05/25 02:52:02;;;;;;;4.07;2.60;;;11.00;99.90;;;;;;4990642;28;20525;-77
2022/05/25 02:54:28;;;;;;;4.45;2.60;;;11.00;99.90;;;;;;4992967;28;20038;-78
2022/05/25 02:56:53;;;;;;;3.45;2.00;;;10.70;99.90;;;;;;4941414;28;20042;-78
2022/05/25 02:59:19;;;;;;;3.58;2.15;;;10.80;99.90;;;;;;4962874;28;20074;-77
2022/05/25 03:01:44;;;;;;;3.10;1.77;;;10.80;99.90;;;;;;4978327;28;20375;-77
2022/05/25 03:04:10;;;;;;;2.90;1.83;;;11.00;99.90;;;;;;4945850;28;20485;-78
2022/05/25 03:06:35;;;;;;;4.20;2.00;;;11.00;99.90;;;;;;4944686;28;20035;-77
2022/05/25 03:09:01;;;;;;;2.75;1.90;;;11.00;99.90;;;;;;4972956;28;20366;-77
2022/05/25 03:11:26;;;;;;;6.03;1.95;;;11.00;99.90;;;;;;4977067;28;20543;-77
2022/05/25 03:13:52;;;;;;;7.88;2.78;;;11.00;99.90;;;;;;4978311;28;20532;-77
2022/05/25 03:16:19;;;;;;;3.08;1.90;;;11.10;99.90;;;;;;4992923;28;20628;-78
2022/05/25 03:18:45;;;;;;;5.03;2.75;;;11.00;99.90;;;;;;4963007;28;20494;-76
2022/05/25 03:21:10;;;;;;;10.45;2.95;;;10.90;99.90;;;;;;4975899;28;20537;-76
2022/05/25 03:23:36;;;;;;;3.85;2.20;;;11.00;99.90;;;;;;4925718;28;20027;-76
2022/05/25 03:26:02;;;;;;;4.10;2.28;;;11.00;99.90;;;;;;4931863;28;20583;-76
2022/05/25 03:28:27;;;;;;;3.17;2.17;;;11.10;99.90;;;;;;4979486;28;20081;-76
2022/05/25 03:30:54;;;;;;;3.05;2.25;;;11.10;99.90;;;;;;4945060;28;20023;-78
2022/05/25 03:33:19;;;;;;;5.75;2.75;;;11.10;99.90;;;;;;4983262;28;20046;-76
2022/05/25 03:35:45;;;;;;;3.65;2.05;;;11.10;99.90;;;;;;4973221;28;20386;-76
2022/05/25 03:38:10;;;;;;;4.90;2.53;;;11.10;99.90;;;;;;4943168;28;20073;-76
2022/05/25 03:40:36;;;;;;;5.22;2.25;;;11.10;99.90;;;;;;4972472;28;20038;-76
2022/05/25 03:43:03;;;;;;;4.90;2.50;;;11.00;99.90;;;;;;4992799;28;20039;-76
2022/05/25 03:45:28;;;;;;;5.03;2.85;;;11.10;99.90;;;;;;4996254;28;20022;-76
2022/05/25 03:47:54;;;;;;;4.63;2.65;;;11.00;99.90;;;;;;4975443;28;20049;-76
2022/05/25 03:50:20;;;;;;;4.40;2.30;;;11.10;99.90;;;;;;4980325;28;20477;-76
2022/05/25 03:52:46;;;;;;;5.75;2.63;;;11.20;99.90;;;;;;4978309;28;20034;-76
2022/05/25 03:55:11;;;;;;;5.85;2.90;;;11.10;99.90;;;;;;4987086;28;20458;-76
2022/05/25 03:57:37;;;;;;;6.07;2.97;;;11.10;99.90;;;;;;4999231;28;20861;-77
2022/05/25 04:00:04;;;;;;;7.80;2.60;;;11.20;99.90;;;;;;4961334;28;20042;-76
2022/05/25 04:02:30;;;;;;;3.97;3.38;;;11.20;99.90;;;;;;4997615;28;20038;-77
2022/05/25 04:05:07;;;;;;;6.10;4.10;;;11.20;99.90;;;;;;4978229;28;20038;-77
2022/05/25 04:07:40;;;;;;;5.57;2.33;;;11.20;99.90;;;;;;4982514;28;20041;-76
2022/05/25 04:10:06;;;;;;;9.13;3.50;;;11.30;99.90;;;;;;4946290;28;20045;-76
2022/05/25 04:12:32;;;;;;;1.80;1.65;;;11.30;99.90;;;;;;4993637;28;20042;-76
2022/05/25 04:14:57;;;;;;;5.55;2.83;;;11.30;99.90;;;;;;4948356;28;20034;-77
2022/05/25 04:17:23;;;;;;;9.65;3.10;;;11.40;99.90;;;;;;4995488;28;20027;-76
2022/05/25 04:19:50;;;;;;;3.35;2.60;;;11.50;99.90;;;;;;4962687;28;20052;-76
2022/05/25 04:22:16;;;;;;;4.50;2.78;;;11.60;99.90;;;;;;4981623;28;20100;-77
2022/05/25 04:24:41;;;;;;;6.28;2.65;;;11.60;99.90;;;;;;4948319;28;20039;-77
2022/05/25 04:27:07;;;;;;;4.38;2.90;;;11.50;99.90;;;;;;4948141;28;20022;-76
2022/05/25 04:29:35;;;;;;;8.85;3.20;;;11.50;99.90;;;;;;4979040;28;20470;-76
2022/05/25 04:32:01;;;;;;;4.10;3.20;;;11.50;99.90;;;;;;4964616;28;20027;-76
2022/05/25 04:34:27;;;;;;;5.05;2.42;;;11.60;99.90;;;;;;4978508;28;20041;-77
2022/05/25 04:36:52;;;;;;;4.88;3.47;;;11.70;99.90;;;;;;4959737;28;20046;-77
2022/05/25 04:39:18;;;;;;;2.80;1.83;;;11.70;99.90;;;;;;4995940;28;20035;-76
2022/05/25 04:41:43;;;;;;;5.15;3.22;;;11.70;99.90;;;;;;4932146;28;20038;-76
2022/05/25 04:44:09;;;;;;;6.63;3.55;;;11.70;99.90;;;;;;4949428;28;20038;-77
2022/05/25 04:46:35;;;;;;;5.25;2.58;;;11.80;99.90;;;;;;4962289;28;20023;-76
2022/05/25 04:49:00;;;;;;;6.78;2.78;;;11.90;99.90;;;;;;4977922;28;20547;-76
2022/05/25 04:51:28;;;;;;;4.75;2.63;;;11.90;99.90;;;;;;4992018;28;20030;-76
2022/05/25 04:53:53;;;;;;;7.95;3.53;;;12.10;99.90;;;;;;4994597;28;20039;-78
2022/05/25 04:59:03;;;;;;;6.57;3.03;;;12.10;99.90;;;;;;4979434;28;20209;-76
2022/05/25 05:01:30;;;;;;;15.45;1.80;;;12.10;99.90;;;;;;4937965;28;21468;-76
2022/05/25 05:03:56;;;;;;;5.32;3.17;;;12.30;99.90;;;;;;4978249;28;20034;-76
2022/05/25 05:06:21;;;;;;;6.90;3.50;;;12.30;99.90;;;;;;4985569;28;20041;-76
2022/05/25 05:08:47;;;;;;;4.10;1.88;;;12.40;99.90;;;;;;4966106;28;20026;-75
2022/05/25 05:11:15;;;;;;;4.38;2.45;;;12.50;99.90;;;;;;4961135;28;20370;-76
2022/05/25 05:13:40;;;;;;;6.15;2.05;;;12.60;99.90;;;;;;4977647;28;20089;-76
2022/05/25 05:16:08;;;;;;;5.82;2.08;;;12.70;99.90;;;;;;4934471;28;20719;-76
2022/05/25 05:18:33;;;;;;;5.53;2.88;;;12.70;99.90;;;;;;4995134;28;20035;-76
2022/05/25 05:20:59;;;;;;;5.78;3.25;;;12.80;99.90;;;;;;4948693;28;20101;-76
2022/05/25 05:23:25;;;;;;;4.30;2.63;;;12.90;99.90;;;;;;4995754;28;20050;-75
2022/05/25 05:25:50;;;;;;;4.43;3.20;;;13.10;99.90;;;;;;4968862;28;20026;-75
2022/05/25 05:28:20;;;;;;;5.25;2.60;;;13.30;99.90;;;;;;4970987;28;20491;-76
2022/05/25 05:30:56;;;;;;;4.68;3.30;;;13.50;99.90;;;;;;4977467;28;20501;-76
2022/05/25 05:33:22;;;;;;;3.90;2.47;;;13.30;99.90;;;;;;4996318;28;20441;-76
2022/05/25 05:35:54;;;;;;;3.83;2.47;;;13.50;99.90;;;;;;4995656;28;20026;-76
2022/05/25 05:38:20;;;;;;;3.20;2.25;;;13.50;99.90;;;;;;4963569;28;20041;-78
2022/05/25 05:40:45;;;;;;;4.65;2.90;;;13.50;99.90;;;;;;4994826;28;20031;-76
2022/05/25 05:43:12;;;;;;;5.78;2.75;;;13.50;99.90;;;;;;4992563;28;20054;-75
2022/05/25 05:45:39;;;;;;;4.32;2.65;;;13.60;99.90;;;;;;4977358;28;20476;-76
2022/05/25 05:48:06;;;;;;;4.47;2.22;;;13.40;99.90;;;;;;4951851;28;20516;-76
2022/05/25 05:50:32;;;;;;;6.57;2.70;;;13.90;99.90;;;;;;4976091;28;20130;-76
2022/05/25 05:52:58;;;;;;;12.98;4.43;;;14.00;99.90;;;;;;4995599;28;20042;-76
2022/05/25 05:55:24;;;;;;;7.45;1.90;;;14.00;99.90;;;;;;4928435;28;20043;-76
2022/05/25 05:57:49;;;;;;;6.28;2.70;;;14.40;99.90;;;;;;4975028;28;20038;-76
2022/05/25 06:00:15;;;;;;;4.45;2.13;;;14.40;99.90;;;;;;4928255;28;20482;-76
2022/05/25 06:02:42;;;;;;;2.90;1.88;;;14.10;99.90;;;;;;4930997;28;20042;-76
2022/05/25 06:05:09;;;;;;;5.55;2.28;;;14.70;99.90;;;;;;4950794;28;20412;-76
2022/05/25 06:07:34;;;;;;;5.55;2.22;;;14.60;99.90;;;;;;4992953;28;20425;-76
2022/05/25 06:10:00;;;;;;;1.33;1.20;;;14.70;99.90;;;;;;4942011;28;20292;-77
2022/05/25 06:12:27;;;;;;;3.20;1.65;;;14.80;99.90;;;;;;4982988;28;20042;-77
2022/05/25 06:14:53;;;;;;;5.30;2.28;;;14.70;99.90;;;;;;4957179;28;20030;-77
2022/05/25 06:20:03;;;;;;;3.00;1.65;;;15.20;99.90;;;;;;4977714;28;20561;-77
2022/05/25 06:22:31;;;;;;;2.13;1.30;;;15.00;99.90;;;;;;4965752;28;20101;-77
2022/05/25 06:24:56;;;;;;;4.40;2.28;;;15.00;99.90;;;;;;4959570;28;20039;-77
2022/05/25 06:27:22;;;;;;;6.88;2.38;;;15.20;99.90;;;;;;4991220;28;20468;-78
2022/05/25 06:29:48;;;;;;;5.20;1.55;;;15.40;99.90;;;;;;4986328;28;20042;-78
2022/05/25 06:32:15;;;;;;;6.22;1.98;;;15.40;99.90;;;;;;4974937;28;20437;-78
2022/05/25 06:34:41;;;;;;;4.07;2.05;;;15.60;99.90;;;;;;4981578;28;20031;-78
2022/05/25 06:37:08;;;;;;;6.47;1.48;;;15.90;99.90;;;;;;4949680;28;20097;-78
2022/05/25 06:39:35;;;;;;;3.55;1.90;;;16.10;99.90;;;;;;4978527;28;20143;-78
2022/05/25 06:42:01;;;;;;;4.13;1.48;;;16.30;99.90;;;;;;4961873;28;20035;-78
2022/05/25 06:44:27;;;;;;;4.65;1.75;;;16.50;99.90;;;;;;4978085;28;20121;-78
2022/05/25 06:46:52;;;;;;;4.05;1.40;;;16.00;99.90;;;;;;4930435;28;20461;-77
2022/05/25 06:49:18;;;;;;;2.65;1.30;;;16.50;99.90;;;;;;4991148;28;20023;-78
2022/05/25 06:51:44;;;;;;;5.95;1.13;;;17.10;99.90;;;;;;4924906;28;20043;-78
2022/05/25 06:54:09;;;;;;;4.85;1.50;;;16.90;99.90;;;;;;4940313;28;20031;-78
2022/05/25 06:56:35;;;;;;;5.15;1.38;;;16.90;99.90;;;;;;4992732;28;20042;-78
2022/05/25 06:59:00;;;;;;;4.78;2.03;;;17.20;99.90;;;;;;4942615;28;20030;-78
2022/05/25 07:01:26;;;;;;;4.05;0.98;;;17.60;99.20;;;;;;4976904;28;20038;-78
2022/05/25 07:03:55;;;;;;;4.03;1.45;;;17.40;98.90;;;;;;4944524;28;20397;-78
2022/05/25 07:06:21;;;;;;;2.50;1.30;;;17.80;99.90;;;;;;4976009;28;20575;-78
2022/05/25 07:08:46;;;;;;;5.28;1.23;;;18.40;99.90;;;;;;4961413;28;20402;-78
2022/05/25 07:11:12;;;;;;;6.13;1.33;;;18.70;99.90;;;;;;4941073;28;20015;-78
2022/05/25 07:13:39;;;;;;;3.78;1.02;;;18.90;99.60;;;;;;4974678;28;20355;-78
2022/05/25 07:16:06;;;;;;;0.82;0.65;;;18.40;97.60;;;;;;4933412;28;20271;-78
2022/05/25 07:18:32;;;;;;;2.45;1.10;;;18.70;98.10;;;;;;4974278;28;20071;-78
2022/05/25 07:21:08;;;;;;;4.22;2.30;;;19.00;96.70;;;;;;4927342;28;20035;-78
2022/05/25 07:23:35;;;;;;;4.25;1.10;;;18.30;96.30;;;;;;4963941;28;20097;-78
2022/05/25 07:26:00;;;;;;;2.47;0.93;;;18.60;96.70;;;;;;4965781;28;20034;-78
2022/05/25 07:28:26;;;;;;;3.63;1.10;;;18.50;95.50;;;;;;4981906;28;20054;-78
2022/05/25 07:30:52;;;;;;;4.18;1.20;;;18.50;95.70;;;;;;4983932;28;20129;-78
2022/05/25 07:33:18;;;;;;;2.42;1.00;;;18.90;95.30;;;;;;4983075;28;20035;-78
2022/05/25 07:35:43;;;;;;;3.55;0.80;;;19.20;97.90;;;;;;4938981;28;20070;-79
2022/05/25 07:38:09;;;;;;;1.65;0.80;;;19.70;95.60;;;;;;4954797;28;20037;-79
2022/05/25 07:40:36;;;;;;;4.82;1.67;;;19.80;96.20;;;;;;4989762;28;20026;-79
2022/05/25 07:43:04;;;;;;;2.58;1.02;;;20.00;94.60;;;;;;4940002;28;20481;-79
2022/05/25 07:45:29;;;;;;;2.75;1.17;;;19.80;95.60;;;;;;4991451;28;20041;-79
2022/05/25 07:47:55;;;;;;;7.00;1.10;;;20.00;95.00;;;;;;4982031;28;20041;-79
2022/05/25 07:50:22;;;;;;;3.47;1.05;;;20.10;93.90;;;;;;4985043;28;20042;-79
2022/05/25 07:52:47;;;;;;;2.55;1.00;;;20.10;93.40;;;;;;5001298;28;20552;-79
2022/05/25 07:55:13;;;;;;;1.92;0.90;;;19.80;92.60;;;;;;4997404;28;20023;-79
2022/05/25 07:57:38;;;;;;;3.10;1.20;;;19.70;91.90;;;;;;4986659;28;20100;-79
2022/05/25 08:00:05;;;;;;;2.05;0.93;;;20.50;92.80;;;;;;4951930;28;20042;-79
2022/05/25 08:08:06;;;;;;;3.10;0.90;;;20.90;92.10;;;;;;4982325;28;20464;-79
2022/05/25 08:10:31;;;;;;;2.42;0.90;;;20.80;90.90;;;;;;5001573;28;20409;-80
2022/05/25 08:12:58;;;;;;;0.98;0.88;;;20.60;90.90;;;;;;4947781;28;20030;-80
2022/05/25 08:15:24;;;;;;;1.90;0.75;;;21.00;91.50;;;;;;4946239;28;20118;-80
2022/05/25 08:17:50;;;;;;;1.77;0.60;;;21.00;90.20;;;;;;4998328;28;20053;-80
2022/05/25 08:20:16;;;;;;;1.45;0.50;;;21.50;91.30;;;;;;4946344;28;20354;-80
2022/05/25 08:22:41;;;;;;;1.92;0.80;;;21.80;91.60;;;;;;4963635;28;20030;-79
2022/05/25 08:25:08;;;;;;;1.33;0.68;;;21.60;90.00;;;;;;4931815;28;20136;-80
2022/05/25 08:27:36;;;;;;;3.28;0.90;;;21.10;86.40;;;;;;4984012;28;20027;-80
2022/05/25 08:30:01;;;;;;;2.97;0.80;;;21.10;84.70;;;;;;4999760;28;20026;-80
2022/05/25 08:32:27;;;;;;;2.78;0.70;;;21.00;82.70;;;;;;4986629;28;20030;-80
2022/05/25 08:34:52;;;;;;;1.92;0.82;;;21.30;84.10;;;;;;4950589;28;20058;-80
2022/05/25 08:37:18;;;;;;;1.17;0.50;;;21.70;83.90;;;;;;4977880;28;20113;-80
2022/05/25 08:39:43;;;;;;;0.73;0.57;;;21.80;85.70;;;;;;4961322;28;20117;-80
2022/05/25 08:42:17;;;;;;;0.98;0.52;;;21.80;80.60;;;;;;4976974;28;20026;-80
2022/05/25 08:44:43;;;;;;;4.50;0.77;;;21.80;80.70;;;;;;4980850;28;20038;-80
2022/05/25 08:47:10;;;;;;;3.28;1.10;;;22.00;82.00;;;;;;4998665;28;20041;-80
2022/05/25 08:49:35;;;;;;;0.63;0.38;;;22.10;80.30;;;;;;4995223;28;20130;-80
2022/05/25 08:52:07;;;;;;;1.15;0.50;;;22.50;78.30;;;;;;4994511;28;20114;-80
2022/05/25 08:54:35;;;;;;;6.57;0.88;;;22.70;80.50;;;;;;4978736;28;20030;-81
2022/05/25 08:57:04;;;;;;;2.13;0.73;;;22.70;80.80;;;;;;4949676;28;20033;-81
2022/05/25 08:59:38;;;;;;;0.80;0.30;;;22.90;78.70;;;;;;4981760;28;20038;-80
2022/05/25 09:02:29;;;;;;;1.35;0.55;;;23.00;76.20;;;;;;4961775;28;20497;-81
2022/05/25 09:05:38;;;;;;;1.85;0.50;;;22.90;76.60;;;;;;4962143;28;20494;-81
2022/05/25 09:08:21;;;;;;;0.93;0.30;;;22.80;72.80;;;;;;4905266;29;20032;-81
2022/05/25 09:10:50;;;;;;;1.40;0.73;;;22.90;73.90;;;;;;4980009;28;20034;-81
2022/05/25 09:13:18;;;;;;;0.80;0.30;;;22.30;72.00;;;;;;4978647;28;20065;-80
2022/05/25 09:18:33;;;;;;;0.65;0.28;;;22.90;73.00;;;;;;4954833;28;20089;-81
2022/05/25 09:20:59;;;;;;;0.20;0.20;;;23.00;73.50;;;;;;4979052;28;20121;-81
2022/05/25 09:23:24;;;;;;;0.52;0.40;;;22.90;69.60;;;;;;4981843;28;20125;-81
2022/05/25 09:25:50;;;;;;;1.98;0.40;;;22.80;68.30;;;;;;4945782;28;20432;-82
2022/05/25 09:28:20;;;;;;;1.38;0.47;;;22.80;67.80;;;;;;4962943;28;20035;-82
2022/05/25 09:30:49;;;;;;;1.88;0.40;;;22.80;70.50;;;;;;4978354;28;20044;-81
2022/05/25 09:33:19;;;;;;;1.67;0.30;;;23.40;72.50;;;;;;4960297;28;20037;-82
2022/05/25 09:35:46;;;;;;;1.40;0.30;;;23.40;68.70;;;;;;4984300;28;20758;-82
2022/05/25 09:38:13;;;;;;;1.98;0.52;;;23.60;69.80;;;;;;4941921;28;20056;-82
2022/05/25 09:40:40;;;;;;;0.77;0.30;;;24.00;69.10;;;;;;4993041;28;20110;-82
2022/05/25 09:43:09;;;;;;;1.90;0.40;;;23.70;68.40;;;;;;4947508;28;20122;-82
2022/05/25 09:45:43;;;;;;;3.92;0.40;;;23.30;64.90;;;;;;4980879;28;20062;-83
2022/05/25 09:48:33;;;;;;;0.88;0.20;;;23.50;67.60;;;;;;4963920;28;20039;-82
2022/05/25 09:51:19;;;;;;;1.05;0.40;;;23.70;67.70;;;;;;4954263;28;20054;-83
2022/05/25 09:54:17;;;;;;;;;;;23.80;66.30;;;;;;4970483;28;20116;-83
2022/05/25 09:56:43;;;;;;;;;;;24.20;66.40;;;;;;4965423;28;19916;-83
2022/05/25 09:59:29;;;;;;;0.50;0.40;;;24.40;64.00;;;;;;4951601;28;19921;-84
2022/05/25 10:01:54;;;;;;;0.37;0.30;;;24.30;65.10;;;;;;4942328;28;20056;-83
2022/05/25 10:04:51;;;;;;;4.05;0.30;;;24.70;63.80;;;;;;4980688;28;20125;-83
2022/05/25 10:07:36;;;;;;;0.80;0.50;;;24.90;65.40;;;;;;4968102;28;20043;-84
2022/05/25 10:10:04;;;;;;;2.28;0.70;;;25.20;64.30;;;;;;4974542;28;20035;-84
2022/05/25 10:12:32;;;;;;;2.30;0.50;;;25.20;65.30;;;;;;4964382;28;20446;-84
2022/05/25 10:15:09;;;;;;;0.30;0.20;;;24.60;61.40;;;;;;4992095;28;20041;-84
2022/05/25 10:17:39;;;;;;;3.38;0.40;;;24.70;61.50;;;;;;4933116;28;20551;-84
2022/05/25 10:20:22;;;;;;;0.30;0.30;;;25.10;62.50;;;;;;4933147;28;20592;-84
2022/05/25 10:22:51;;;;;;;0.30;0.30;;;25.40;60.50;;;;;;4959938;28;20042;-84
2022/05/25 10:25:45;;;;;;;2.53;0.30;;;25.60;61.90;;;;;;4926364;28;20114;-85
2022/05/25 10:28:30;;;;;;;1.20;0.50;;;25.70;60.50;;;;;;4978230;28;20103;-84
2022/05/25 10:36:49;;;;;;;1.02;0.38;;;25.70;64.00;;;;;;4963136;28;20030;-83
2022/05/25 10:39:29;;;;;;;0.45;0.30;;;25.60;59.10;;;;;;4958632;28;20062;-83
2022/05/25 10:42:18;;;;;;;3.00;0.30;;;25.70;59.60;;;;;;4976460;28;20105;-85
2022/05/25 10:44:46;;;;;;;0.68;0.30;;;25.50;57.50;;;;;;4958025;28;20054;-84
2022/05/25 10:47:51;;;;;;;0.30;0.30;;;25.70;59.40;;;;;;4972408;28;20053;-84
2022/05/25 10:50:33;;;;;;;0.30;0.28;;;25.60;60.00;;;;;;4964539;28;20073;-85
2022/05/25 10:53:29;;;;;;;1.55;0.60;;;25.70;59.10;;;;;;4963230;28;20045;-84
2022/05/25 10:56:40;;;;;;;0.98;0.60;;;25.90;59.30;;;;;;4975319;28;20059;-85
2022/05/25 10:59:14;;;;;;;1.33;0.40;;;26.00;60.30;;;;;;4970452;28;20601;-83
2022/05/25 11:01:43;;;;;;;1.77;0.47;;;25.90;59.60;;;;;;4962802;28;20022;-83
2022/05/25 11:04:33;;;;;;;2.00;0.22;;;25.70;59.10;;;;;;4975375;28;20030;-86
2022/05/25 11:07:37;;;;;;;0.63;0.30;;;25.40;58.10;;;;;;4975065;28;20103;-85
2022/05/25 11:10:11;;;;;;;0.28;0.28;;;25.30;58.80;;;;;;4964500;28;20085;-86
2022/05/25 11:12:53;;;;;;;1.13;0.40;;;25.10;59.40;;;;;;4978747;28;20088;-86
2022/05/25 11:15:23;;;;;;;1.30;0.47;;;25.00;58.60;;;;;;4987957;28;20412;-85
2022/05/25 11:18:05;;;;;;;2.38;0.40;;;25.00;58.70;;;;;;4975243;28;20054;-85
2022/05/25 11:21:03;;;;;;;0.65;0.35;;;24.90;57.20;;;;;;4992703;28;20037;-85
2022/05/25 11:23:43;;;;;;;0.20;0.20;;;24.90;56.00;;;;;;4959214;28;20034;-85
2022/05/25 11:26:44;;;;;;;0.68;0.52;;;25.10;55.90;;;;;;4949287;28;20030;-85
2022/05/25 11:29:32;;;;;;;0.20;0.20;;;25.00;55.60;;;;;;4944505;28;20027;-86
2022/05/25 11:32:07;;;;;;;2.35;0.52;;;25.00;55.30;;;;;;4974081;28;20094;-86
2022/05/25 11:34:45;;;;;;;1.10;0.43;;;25.50;56.30;;;;;;4962090;28;20109;-86
2022/05/25 11:37:29;;;;;;;1.92;0.30;;;25.00;53.80;;;;;;4977950;28;20410;-86
2022/05/25 11:40:06;;;;;;;4.25;0.50;;;25.10;54.50;;;;;;4980878;28;20054;-84
2022/05/25 11:42:50;;;;;;;2.15;0.32;;;26.00;54.40;;;;;;4989617;28;20121;-86
2022/05/25 11:45:37;;;;;;;2.53;0.38;;;26.20;53.10;;;;;;4976479;28;20374;-85
2022/05/25 11:48:16;;;;;;;1.40;0.20;;;26.30;54.70;;;;;;4983223;28;20054;-84
2022/05/25 11:51:21;;;;;;;1.42;0.40;;;26.40;54.00;;;;;;4933832;28;20043;-85
2022/05/25 11:54:01;;;;;;;0.60;0.22;;;26.50;52.60;;;;;;4978280;28;20035;-84
2022/05/25 11:56:55;;;;;;;2.25;0.60;;;26.60;52.80;;;;;;4967092;28;20382;-84
2022/05/25 11:59:54;;;;;;;3.17;0.30;;;26.70;53.40;;;;;;4965296;28;20560;-85
2022/05/25 12:02:34;;;;;;;0.73;0.30;;;26.50;51.50;;;;;;4974613;28;20118;-85
2022/05/25 12:05:14;;;;;;;0.70;0.40;;;26.20;51.20;;;;;;4975614;28;20023;-84
2022/05/25 12:07:55;;;;;;;4.90;0.40;;;26.50;51.50;;;;;;4972447;28;20030;-84
2022/05/25 12:10:31;;;;;;;0.85;0.30;;;26.50;50.60;;;;;;4992303;28;20583;-84
2022/05/25 12:13:01;;;;;;;0.90;0.30;;;27.00;51.20;;;;;;4974915;28;20031;-84
2022/05/25 12:15:32;;;;;;;1.17;0.30;;;27.20;50.90;;;;;;4989667;28;20485;-84
2022/05/25 12:18:09;;;;;;;1.73;0.98;;;27.40;49.80;;;;;;4964326;28;20038;-83
2022/05/25 12:20:43;;;;;;;0.68;0.30;;;26.70;50.40;;;;;;4960657;28;20054;-83
2022/05/25 12:23:22;;;;;;;2.15;0.60;;;26.70;49.10;;;;;;4981133;28;20098;-83
2022/05/25 12:25:59;;;;;;;1.48;0.32;;;26.70;51.60;;;;;;4955324;28;20557;-83
2022/05/25 12:28:28;;;;;;;0.90;0.70;;;26.90;50.70;;;;;;4992529;28;20038;-83
2022/05/25 12:30:58;;;;;;;0.65;0.40;;;26.70;49.70;;;;;;4938620;28;20446;-83
2022/05/25 12:33:24;;;;;;;0.80;0.20;;;26.80;51.20;;;;;;4980738;28;20030;-83
2022/05/25 12:35:50;;;;;;;0.25;0.25;;;26.50;50.10;;;;;;4980811;28;20418;-82
2022/05/25 12:38:15;;;;;;;0.30;0.30;;;27.10;50.20;;;;;;4984511;28;20114;-82
2022/05/25 12:40:43;;;;;;;0.63;0.30;;;27.30;49.80;;;;;;4980934;28;20112;-82
2022/05/25 12:43:39;;;;;;;0.32;0.30;;;27.10;50.00;;;;;;4980417;28;22498;-83
2022/05/25 12:49:01;;;;;;;0.30;0.30;;;26.80;50.00;;;;;;4978161;28;20049;-82
2022/05/25 12:51:39;;;;;;;0.38;0.20;;;26.90;50.10;;;;;;4974598;28;20510;-82
2022/05/25 12:54:21;;;;;;;1.00;0.30;;;27.00;49.10;;;;;;4976246;28;20030;-82
2022/05/25 12:56:47;;;;;;;1.30;0.40;;;26.30;48.80;;;;;;4984650;28;20639;-82
2022/05/25 12:59:24;;;;;;;0.57;0.45;;;26.30;49.30;;;;;;4996962;28;20098;-81
2022/05/25 13:02:13;;;;;;;1.85;0.50;;;26.60;50.20;;;;;;4979549;28;20501;-81
2022/05/25 13:04:42;;;;;;;3.08;0.77;;;27.10;50.00;;;;;;4961779;28;20363;-81
2022/05/25 13:07:21;;;;;;;0.30;0.30;;;26.90;50.50;;;;;;4975797;28;20030;-81
2022/05/25 13:09:49;;;;;;;0.88;0.38;;;26.80;48.90;;;;;;4948154;28;20673;-81
2022/05/25 13:12:36;;;;;;;0.65;0.40;;;26.50;50.60;;;;;;4960463;28;20110;-81
2022/05/25 13:15:02;;;;;;;2.08;0.40;;;26.50;50.20;;;;;;4977621;28;20034;-82
2022/05/25 13:17:43;;;;;;;1.05;0.50;;;26.90;50.50;;;;;;4982970;28;20046;-81
2022/05/25 13:20:16;;;;;;;1.95;0.63;;;27.10;50.10;;;;;;4978501;28;20035;-81
2022/05/25 13:22:42;;;;;;;2.70;0.38;;;26.60;48.10;;;;;;4985617;28;20027;-81
2022/05/25 13:25:25;;;;;;;0.73;0.40;;;26.70;49.20;;;;;;4984720;28;20367;-81
2022/05/25 13:28:17;;;;;;;0.45;0.35;;;26.70;48.10;;;;;;4944224;28;20525;-81
2022/05/25 13:31:20;;;;;;;10.88;1.98;;;26.40;48.90;;;;;;4973325;28;20054;-81
2022/05/25 13:33:46;;;;;;;0.65;0.35;;;26.20;48.80;;;;;;4964834;28;20030;-81
2022/05/25 13:36:20;;;;;;;1.75;0.45;;;26.30;49.80;;;;;;4996307;28;20481;-81